createdAt,value
2019-02-18T00:00:26.881Z,0
2019-02-18T00:01:26.906Z,0
2019-02-18T00:02:26.679Z,0
2019-02-18T00:03:26.398Z,0
2019-02-18T00:04:26.851Z,0
2019-02-18T00:05:26.868Z,0
2019-02-18T00:06:26.852Z,0
2019-02-18T00:07:26.822Z,0
2019-02-18T00:08:26.800Z,0
2019-02-18T00:09:26.801Z,0
2019-02-18T00:10:26.547Z,0
2019-02-18T00:11:26.554Z,0
2019-02-18T00:12:26.027Z,0
2019-02-18T00:13:26.788Z,0
2019-02-18T00:14:26.510Z,0
2019-02-18T00:15:26.503Z,0
2019-02-18T00:16:26.233Z,0
2019-02-18T00:17:26.473Z,0
2019-02-18T00:18:26.717Z,0
2019-02-18T00:19:26.463Z,0
2019-02-18T00:20:26.207Z,0
2019-02-18T00:21:26.454Z,0
2019-02-18T00:22:28.576Z,0
2019-02-18T00:23:26.424Z,0
2019-02-18T00:24:26.164Z,0
2019-02-18T00:25:26.481Z,0
2019-02-18T00:26:26.394Z,0
2019-02-18T00:27:26.115Z,0
2019-02-18T00:28:26.690Z,0
2019-02-18T00:29:26.439Z,0
2019-02-18T00:30:26.349Z,0
2019-02-18T00:31:26.588Z,0
2019-02-18T00:32:26.331Z,0
2019-02-18T00:33:26.316Z,0
2019-02-18T00:34:26.302Z,0
2019-02-18T00:35:26.312Z,0
2019-02-18T00:36:26.280Z,0
2019-02-18T00:37:31.615Z,0
2019-02-18T00:38:26.293Z,0
2019-02-18T00:39:26.527Z,0
2019-02-18T00:40:26.257Z,0
2019-02-18T00:41:26.032Z,0
2019-02-18T00:42:26.225Z,0
2019-02-18T00:43:26.477Z,0
2019-02-18T00:44:26.468Z,0
2019-02-18T00:45:26.202Z,0
2019-02-18T00:46:26.197Z,0
2019-02-18T00:47:26.859Z,0
2019-02-18T00:48:26.406Z,0
2019-02-18T00:49:25.906Z,0
2019-02-18T00:50:25.645Z,0
2019-02-18T00:51:26.146Z,0
2019-02-18T00:52:25.890Z,0
2019-02-18T00:53:26.145Z,0
2019-02-18T00:54:26.373Z,0
2019-02-18T00:55:25.858Z,0
2019-02-18T00:56:25.836Z,0
2019-02-18T00:57:25.828Z,0
2019-02-18T00:58:26.331Z,0
2019-02-18T00:59:25.812Z,0
2019-02-18T01:00:26.330Z,0
2019-02-18T01:01:25.550Z,0
2019-02-18T01:02:26.030Z,0
2019-02-18T01:03:25.786Z,0
2019-02-18T01:04:26.024Z,0
2019-02-18T01:05:26.319Z,0
2019-02-18T01:06:26.003Z,0
2019-02-18T01:07:34.386Z,0
2019-02-18T01:08:26.243Z,0
2019-02-18T01:09:25.973Z,0
2019-02-18T01:10:26.016Z,0
2019-02-18T01:11:25.454Z,0
2019-02-18T01:12:25.935Z,0
2019-02-18T01:13:26.172Z,0
2019-02-18T01:14:25.673Z,0
2019-02-18T01:15:25.924Z,0
2019-02-18T01:16:26.137Z,0
2019-02-18T01:17:26.050Z,0
2019-02-18T01:18:26.133Z,0
2019-02-18T01:19:25.889Z,0
2019-02-18T01:20:25.357Z,0
2019-02-18T01:21:25.626Z,0
2019-02-18T01:22:25.896Z,0
2019-02-18T01:23:26.106Z,0
2019-02-18T01:24:25.826Z,0
2019-02-18T01:25:25.599Z,0
2019-02-18T01:26:25.818Z,0
2019-02-18T01:27:25.793Z,0
2019-02-18T01:28:26.046Z,0
2019-02-18T01:29:26.017Z,0
2019-02-18T01:30:25.766Z,0
2019-02-18T01:31:25.999Z,0
2019-02-18T01:32:25.979Z,0
2019-02-18T01:33:26.058Z,0
2019-02-18T01:34:25.489Z,0
2019-02-18T01:35:25.738Z,0
2019-02-18T01:36:27.973Z,0
2019-02-18T01:37:25.930Z,0
2019-02-18T01:38:25.682Z,0
2019-02-18T01:39:25.683Z,0
2019-02-18T01:40:25.911Z,0
2019-02-18T01:41:25.180Z,0
2019-02-18T01:42:25.390Z,0
2019-02-18T01:43:25.631Z,0
2019-02-18T01:44:25.627Z,0
2019-02-18T01:45:25.449Z,0
2019-02-18T01:46:25.602Z,0
2019-02-18T01:47:25.353Z,0
2019-02-18T01:48:25.597Z,0
2019-02-18T01:49:25.094Z,0
2019-02-18T01:50:25.565Z,0
2019-02-18T01:51:25.813Z,0
2019-02-18T01:52:25.623Z,0
2019-02-18T01:53:25.303Z,0
2019-02-18T01:54:25.554Z,0
2019-02-18T01:55:25.521Z,0
2019-02-18T01:56:25.520Z,0
2019-02-18T01:57:25.503Z,0
2019-02-18T01:58:25.498Z,0
2019-02-18T01:59:25.496Z,0
2019-02-18T02:00:24.994Z,0
2019-02-18T02:01:25.702Z,0
2019-02-18T02:02:25.709Z,0
2019-02-18T02:03:27.640Z,0
2019-02-18T02:04:25.454Z,0
2019-02-18T02:05:25.427Z,0
2019-02-18T02:06:25.406Z,0
2019-02-18T02:07:25.644Z,0
2019-02-18T02:08:25.635Z,0
2019-02-18T02:09:25.387Z,0
2019-02-18T02:10:25.630Z,0
2019-02-18T02:11:25.623Z,0
2019-02-18T02:12:25.336Z,0
2019-02-18T02:13:25.323Z,0
2019-02-18T02:14:25.324Z,0
2019-02-18T02:15:25.330Z,0
2019-02-18T02:16:25.341Z,0
2019-02-18T02:17:25.566Z,0
2019-02-18T02:18:25.275Z,0
2019-02-18T02:19:25.027Z,0
2019-02-18T02:20:25.252Z,0
2019-02-18T02:21:25.248Z,0
2019-02-18T02:22:25.508Z,0
2019-02-18T02:23:25.002Z,0
2019-02-18T02:24:25.529Z,0
2019-02-18T02:25:25.250Z,0
2019-02-18T02:26:25.191Z,0
2019-02-18T02:27:25.441Z,0
2019-02-18T02:28:25.182Z,0
2019-02-18T02:29:25.409Z,0
2019-02-18T02:30:25.175Z,0
2019-02-18T02:31:24.901Z,0
2019-02-18T02:32:25.168Z,0
2019-02-18T02:33:25.436Z,0
2019-02-18T02:34:25.390Z,0
2019-02-18T02:35:25.154Z,0
2019-02-18T02:36:25.395Z,0
2019-02-18T02:37:25.353Z,0
2019-02-18T02:38:25.337Z,0
2019-02-18T02:39:25.340Z,0
2019-02-18T02:40:25.353Z,0
2019-02-18T02:41:25.289Z,0
2019-02-18T02:42:25.339Z,0
2019-02-18T02:43:25.039Z,0
2019-02-18T02:44:25.328Z,0
2019-02-18T02:45:25.021Z,0
2019-02-18T02:46:25.266Z,0
2019-02-18T02:47:25.024Z,0
2019-02-18T02:48:25.241Z,0
2019-02-18T02:49:25.218Z,0
2019-02-18T02:50:24.960Z,0
2019-02-18T02:51:25.221Z,0
2019-02-18T02:52:25.193Z,0
2019-02-18T02:53:24.936Z,0
2019-02-18T02:54:25.176Z,0
2019-02-18T02:55:24.944Z,0
2019-02-18T02:56:25.130Z,0
2019-02-18T02:57:25.140Z,0
2019-02-18T02:58:25.122Z,0
2019-02-18T02:59:24.971Z,0
2019-02-18T03:00:24.626Z,0
2019-02-18T03:01:24.853Z,0
2019-02-18T03:02:25.082Z,0
2019-02-18T03:03:24.834Z,0
2019-02-18T03:04:25.059Z,0
2019-02-18T03:05:25.064Z,0
2019-02-18T03:06:24.814Z,0
2019-02-18T03:07:24.821Z,0
2019-02-18T03:08:27.631Z,0
2019-02-18T03:09:24.758Z,0
2019-02-18T03:10:24.979Z,0
2019-02-18T03:11:24.748Z,0
2019-02-18T03:12:25.048Z,0
2019-02-18T03:13:24.766Z,0
2019-02-18T03:14:24.948Z,0
2019-02-18T03:15:24.702Z,0
2019-02-18T03:16:24.689Z,0
2019-02-18T03:17:24.922Z,0
2019-02-18T03:18:24.439Z,0
2019-02-18T03:19:24.664Z,0
2019-02-18T03:20:24.925Z,0
2019-02-18T03:21:24.901Z,0
2019-02-18T03:22:24.656Z,0
2019-02-18T03:23:24.860Z,0
2019-02-18T03:24:24.616Z,0
2019-02-18T03:25:24.838Z,0
2019-02-18T03:26:24.585Z,0
2019-02-18T03:27:24.591Z,0
2019-02-18T03:28:24.836Z,0
2019-02-18T03:29:24.529Z,0
2019-02-18T03:30:24.390Z,0
2019-02-18T03:31:24.550Z,0
2019-02-18T03:32:24.528Z,0
2019-02-18T03:33:24.783Z,0
2019-02-18T03:34:24.744Z,0
2019-02-18T03:35:24.491Z,0
2019-02-18T03:36:24.291Z,0
2019-02-18T03:37:24.466Z,0
2019-02-18T03:38:36.006Z,0
2019-02-18T03:39:24.204Z,0
2019-02-18T03:40:24.446Z,0
2019-02-18T03:41:24.443Z,0
2019-02-18T03:42:24.654Z,0
2019-02-18T03:43:24.161Z,0
2019-02-18T03:44:24.388Z,0
2019-02-18T03:45:23.894Z,0
2019-02-18T03:46:24.374Z,0
2019-02-18T03:47:24.358Z,0
2019-02-18T03:48:24.649Z,0
2019-02-18T03:49:24.333Z,0
2019-02-18T03:50:24.573Z,0
2019-02-18T03:51:24.590Z,0
2019-02-18T03:52:24.287Z,0
2019-02-18T03:53:24.300Z,0
2019-02-18T03:54:24.285Z,0
2019-02-18T03:55:24.528Z,0
2019-02-18T03:56:24.333Z,0
2019-02-18T03:57:24.257Z,0
2019-02-18T03:58:24.480Z,0
2019-02-18T03:59:24.299Z,0
2019-02-18T04:00:24.477Z,0
2019-02-18T04:01:24.241Z,0
2019-02-18T04:02:24.187Z,0
2019-02-18T04:03:24.215Z,0
2019-02-18T04:04:24.295Z,0
2019-02-18T04:05:24.175Z,0
2019-02-18T04:06:24.131Z,0
2019-02-18T04:07:24.382Z,0
2019-02-18T04:08:23.865Z,0
2019-02-18T04:09:24.153Z,0
2019-02-18T04:10:24.464Z,0
2019-02-18T04:11:23.862Z,0
2019-02-18T04:12:24.341Z,0
2019-02-18T04:13:23.584Z,0
2019-02-18T04:14:24.051Z,0
2019-02-18T04:15:24.329Z,0
2019-02-18T04:16:24.061Z,0
2019-02-18T04:17:24.077Z,0
2019-02-18T04:18:24.266Z,0
2019-02-18T04:19:23.998Z,0
2019-02-18T04:20:24.045Z,0
2019-02-18T04:21:23.988Z,0
2019-02-18T04:22:24.252Z,0
2019-02-18T04:23:24.206Z,0
2019-02-18T04:24:23.989Z,0
2019-02-18T04:25:23.942Z,0
2019-02-18T04:26:23.981Z,0
2019-02-18T04:27:23.682Z,0
2019-02-18T04:28:23.655Z,0
2019-02-18T04:29:23.925Z,0
2019-02-18T04:30:23.879Z,0
2019-02-18T04:31:23.619Z,0
2019-02-18T04:32:24.188Z,0
2019-02-18T04:33:24.116Z,0
2019-02-18T04:34:23.342Z,0
2019-02-18T04:35:24.098Z,0
2019-02-18T04:36:23.823Z,0
2019-02-18T04:37:24.038Z,0
2019-02-18T04:38:23.829Z,0
2019-02-18T04:39:24.071Z,0
2019-02-18T04:40:23.822Z,0
2019-02-18T04:41:24.002Z,0
2019-02-18T04:42:24.032Z,0
2019-02-18T04:43:24.019Z,0
2019-02-18T04:44:23.738Z,0
2019-02-18T04:45:23.453Z,0
2019-02-18T04:46:23.586Z,0
2019-02-18T04:47:23.706Z,0
2019-02-18T04:48:23.966Z,0
2019-02-18T04:49:23.946Z,0
2019-02-18T04:50:23.975Z,0
2019-02-18T04:51:23.644Z,0
2019-02-18T04:52:23.925Z,0
2019-02-18T04:53:23.631Z,0
2019-02-18T04:54:23.374Z,0
2019-02-18T04:55:23.605Z,0
2019-02-18T04:56:23.329Z,0
2019-02-18T04:57:23.581Z,0
2019-02-18T04:58:23.315Z,0
2019-02-18T04:59:23.307Z,0
2019-02-18T05:00:23.795Z,0
2019-02-18T05:01:23.809Z,0
2019-02-18T05:02:23.775Z,0
2019-02-18T05:03:23.758Z,0
2019-02-18T05:04:23.724Z,0
2019-02-18T05:05:23.724Z,0
2019-02-18T05:06:25.497Z,0
2019-02-18T05:07:23.481Z,0
2019-02-18T05:08:23.244Z,0
2019-02-18T05:09:23.182Z,0
2019-02-18T05:10:23.513Z,0
2019-02-18T05:11:23.652Z,0
2019-02-18T05:12:23.402Z,0
2019-02-18T05:13:23.416Z,0
2019-02-18T05:14:23.395Z,0
2019-02-18T05:15:23.491Z,0
2019-02-18T05:16:23.625Z,0
2019-02-18T05:17:23.591Z,0
2019-02-18T05:18:23.337Z,0
2019-02-18T05:19:25.469Z,0
2019-02-18T05:20:23.384Z,0
2019-02-18T05:21:22.835Z,0
2019-02-18T05:22:23.534Z,0
2019-02-18T05:23:23.281Z,0
2019-02-18T05:24:23.267Z,0
2019-02-18T05:25:23.516Z,0
2019-02-18T05:26:23.256Z,0
2019-02-18T05:27:32.959Z,0
2019-02-18T05:28:23.222Z,0
2019-02-18T05:29:23.211Z,0
2019-02-18T05:30:22.971Z,0
2019-02-18T05:31:23.208Z,0
2019-02-18T05:32:23.171Z,0
2019-02-18T05:33:23.166Z,0
2019-02-18T05:34:23.393Z,0
2019-02-18T05:35:23.418Z,0
2019-02-18T05:36:23.386Z,0
2019-02-18T05:37:23.108Z,0
2019-02-18T05:38:23.121Z,0
2019-02-18T05:39:25.601Z,0
2019-02-18T05:40:23.106Z,0
2019-02-18T05:41:23.094Z,0
2019-02-18T05:42:23.301Z,0
2019-02-18T05:43:23.040Z,0
2019-02-18T05:44:23.048Z,0
2019-02-18T05:45:23.103Z,0
2019-02-18T05:46:23.022Z,0
2019-02-18T05:47:23.003Z,0
2019-02-18T05:48:23.014Z,0
2019-02-18T05:49:23.205Z,0
2019-02-18T05:50:24.841Z,0
2019-02-18T05:51:22.966Z,0
2019-02-18T05:52:22.687Z,0
2019-02-18T05:53:22.926Z,4
2019-02-18T05:54:22.904Z,4
2019-02-18T05:55:23.221Z,0
2019-02-18T05:56:22.375Z,4
2019-02-18T05:57:25.117Z,4
2019-02-18T05:58:23.107Z,4
2019-02-18T05:59:22.852Z,4
2019-02-18T06:00:22.949Z,4
2019-02-18T06:01:22.840Z,4
2019-02-18T06:02:23.093Z,4
2019-02-18T06:03:22.814Z,8
2019-02-18T06:04:22.793Z,8
2019-02-18T06:05:22.892Z,12
2019-02-18T06:06:22.763Z,12
2019-02-18T06:07:23.005Z,16
2019-02-18T06:08:23.044Z,16
2019-02-18T06:09:33.790Z,20
2019-02-18T06:10:23.803Z,28
2019-02-18T06:11:22.710Z,32
2019-02-18T06:12:22.738Z,36
2019-02-18T06:13:22.764Z,44
2019-02-18T06:14:22.684Z,52
2019-02-18T06:15:22.933Z,64
2019-02-18T06:16:22.914Z,72
2019-02-18T06:17:22.174Z,84
2019-02-18T06:18:22.643Z,104
2019-02-18T06:19:22.866Z,120
2019-02-18T06:20:22.496Z,132
2019-02-18T06:21:22.348Z,152
2019-02-18T06:22:22.825Z,172
2019-02-18T06:23:22.615Z,196
2019-02-18T06:24:22.619Z,224
2019-02-18T06:25:22.861Z,252
2019-02-18T06:26:22.580Z,280
2019-02-18T06:27:22.824Z,312
2019-02-18T06:28:22.521Z,340
2019-02-18T06:29:22.283Z,376
2019-02-18T06:30:22.560Z,408
2019-02-18T06:31:22.509Z,444
2019-02-18T06:32:22.228Z,480
2019-02-18T06:33:22.725Z,516
2019-02-18T06:34:22.202Z,556
2019-02-18T06:35:22.752Z,600
2019-02-18T06:36:23.851Z,640
2019-02-18T06:37:22.679Z,680
2019-02-18T06:38:22.398Z,720
2019-02-18T06:39:22.388Z,764
2019-02-18T06:40:22.679Z,812
2019-02-18T06:41:22.643Z,852
2019-02-18T06:42:22.101Z,896
2019-02-18T06:43:22.579Z,940
2019-02-18T06:44:22.559Z,988
2019-02-18T06:45:22.140Z,1036
2019-02-18T06:46:22.563Z,1088
2019-02-18T06:47:22.560Z,1136
2019-02-18T06:48:22.289Z,1184
2019-02-18T06:49:22.318Z,1228
2019-02-18T06:50:22.172Z,1288
2019-02-18T06:51:23.721Z,1340
2019-02-18T06:52:22.247Z,1396
2019-02-18T06:53:22.467Z,1480
2019-02-18T06:54:21.693Z,1524
2019-02-18T06:55:22.274Z,1552
2019-02-18T06:56:22.185Z,1568
2019-02-18T06:57:22.229Z,1608
2019-02-18T06:58:22.167Z,1656
2019-02-18T06:59:21.893Z,1700
2019-02-18T07:00:21.905Z,1748
2019-02-18T07:01:22.407Z,1788
2019-02-18T07:02:22.399Z,1836
2019-02-18T07:03:23.186Z,1880
2019-02-18T07:04:22.338Z,1920
2019-02-18T07:05:22.145Z,1964
2019-02-18T07:06:22.389Z,2008
2019-02-18T07:07:22.050Z,2052
2019-02-18T07:08:22.282Z,2096
2019-02-18T07:09:21.783Z,2136
2019-02-18T07:10:22.098Z,2184
2019-02-18T07:11:21.765Z,2224
2019-02-18T07:12:21.746Z,2268
2019-02-18T07:13:22.230Z,2308
2019-02-18T07:14:21.985Z,2352
2019-02-18T07:15:22.022Z,2392
2019-02-18T07:16:21.712Z,2428
2019-02-18T07:17:21.954Z,2468
2019-02-18T07:18:21.715Z,2504
2019-02-18T07:19:21.409Z,2540
2019-02-18T07:20:21.927Z,2576
2019-02-18T07:21:22.145Z,2620
2019-02-18T07:22:21.876Z,2652
2019-02-18T07:23:21.862Z,2700
2019-02-18T07:24:22.441Z,2744
2019-02-18T07:25:22.198Z,2836
2019-02-18T07:26:21.840Z,3024
2019-02-18T07:27:22.066Z,3264
2019-02-18T07:28:21.821Z,3520
2019-02-18T07:29:21.850Z,3836
2019-02-18T07:30:21.565Z,4112
2019-02-18T07:31:22.027Z,4340
2019-02-18T07:32:21.522Z,4540
2019-02-18T07:33:21.794Z,4616
2019-02-18T07:34:21.764Z,4744
2019-02-18T07:35:21.829Z,4800
2019-02-18T07:36:21.776Z,4852
2019-02-18T07:37:21.978Z,4916
2019-02-18T07:38:21.972Z,4964
2019-02-18T07:39:21.733Z,5016
2019-02-18T07:40:22.018Z,5064
2019-02-18T07:41:21.695Z,5096
2019-02-18T07:42:21.918Z,5128
2019-02-18T07:43:23.103Z,5156
2019-02-18T07:44:21.662Z,5192
2019-02-18T07:45:22.035Z,5220
2019-02-18T07:46:21.905Z,5256
2019-02-18T07:47:21.894Z,5276
2019-02-18T07:48:21.632Z,5312
2019-02-18T07:49:21.399Z,5344
2019-02-18T07:50:27.400Z,5396
2019-02-18T07:51:21.144Z,5428
2019-02-18T07:52:21.370Z,5460
2019-02-18T07:53:21.619Z,5476
2019-02-18T07:54:21.865Z,5408
2019-02-18T07:55:21.637Z,5284
2019-02-18T07:56:21.867Z,5252
2019-02-18T07:57:21.842Z,5280
2019-02-18T07:58:21.586Z,5348
2019-02-18T07:59:21.843Z,5376
2019-02-18T08:00:21.622Z,5388
2019-02-18T08:01:21.819Z,5392
2019-02-18T08:02:21.818Z,5336
2019-02-18T08:03:21.846Z,5232
2019-02-18T08:04:21.808Z,5140
2019-02-18T08:05:21.544Z,5100
2019-02-18T08:06:21.770Z,5088
2019-02-18T08:07:21.309Z,5100
2019-02-18T08:08:21.549Z,5116
2019-02-18T08:09:21.768Z,5068
2019-02-18T08:10:21.529Z,5088
2019-02-18T08:11:21.521Z,5100
2019-02-18T08:12:21.520Z,5112
2019-02-18T08:13:21.758Z,5124
2019-02-18T08:14:21.523Z,5144
2019-02-18T08:15:21.338Z,5132
2019-02-18T08:16:21.259Z,5160
2019-02-18T08:17:21.523Z,5164
2019-02-18T08:18:21.542Z,5176
2019-02-18T08:19:22.903Z,5188
2019-02-18T08:20:21.748Z,5204
2019-02-18T08:21:21.217Z,5212
2019-02-18T08:22:21.686Z,5236
2019-02-18T08:23:21.458Z,5256
2019-02-18T08:24:21.460Z,5280
2019-02-18T08:25:21.431Z,5300
2019-02-18T08:26:21.422Z,5304
2019-02-18T08:27:21.175Z,5292
2019-02-18T08:28:21.680Z,5320
2019-02-18T08:29:21.400Z,5360
2019-02-18T08:30:21.311Z,5416
2019-02-18T08:31:21.689Z,5476
2019-02-18T08:32:21.165Z,5548
2019-02-18T08:33:21.395Z,5620
2019-02-18T08:34:21.653Z,5680
2019-02-18T08:35:21.489Z,5748
2019-02-18T08:36:21.619Z,5804
2019-02-18T08:37:21.404Z,5852
2019-02-18T08:38:20.887Z,5904
2019-02-18T08:39:21.615Z,5944
2019-02-18T08:40:29.616Z,6012
2019-02-18T08:41:21.362Z,6044
2019-02-18T08:42:21.357Z,6084
2019-02-18T08:43:21.362Z,6116
2019-02-18T08:44:21.600Z,6140
2019-02-18T08:45:21.358Z,6164
2019-02-18T08:46:21.088Z,6200
2019-02-18T08:47:21.592Z,6232
2019-02-18T08:48:21.362Z,6248
2019-02-18T08:49:21.100Z,6264
2019-02-18T08:50:21.682Z,6292
2019-02-18T08:51:21.889Z,6308
2019-02-18T08:52:21.313Z,6324
2019-02-18T08:53:21.080Z,6340
2019-02-18T08:54:21.314Z,6348
2019-02-18T08:55:21.351Z,6360
2019-02-18T08:56:21.305Z,6372
2019-02-18T08:57:21.283Z,6360
2019-02-18T08:58:21.299Z,6404
2019-02-18T08:59:21.292Z,6428
2019-02-18T09:00:21.354Z,6440
2019-02-18T09:01:21.531Z,6448
2019-02-18T09:02:21.290Z,6472
2019-02-18T09:03:21.030Z,6468
2019-02-18T09:04:21.514Z,6484
2019-02-18T09:05:22.095Z,6500
2019-02-18T09:06:21.236Z,6528
2019-02-18T09:07:21.469Z,6552
2019-02-18T09:08:21.532Z,6560
2019-02-18T09:09:21.207Z,6632
2019-02-18T09:10:21.243Z,6636
2019-02-18T09:11:21.480Z,6620
2019-02-18T09:12:21.184Z,6640
2019-02-18T09:13:21.454Z,6640
2019-02-18T09:14:21.426Z,6628
2019-02-18T09:15:21.448Z,6636
2019-02-18T09:16:21.412Z,6636
2019-02-18T09:17:20.906Z,6636
2019-02-18T09:18:21.172Z,6640
2019-02-18T09:19:20.926Z,6652
2019-02-18T09:20:21.184Z,6620
2019-02-18T09:21:21.666Z,6640
2019-02-18T09:22:20.648Z,6660
2019-02-18T09:23:21.367Z,6656
2019-02-18T09:24:21.354Z,6644
2019-02-18T09:25:21.104Z,6660
2019-02-18T09:26:21.353Z,6644
2019-02-18T09:27:21.320Z,6648
2019-02-18T09:28:20.821Z,6660
2019-02-18T09:29:21.047Z,6636
2019-02-18T09:30:21.386Z,6648
2019-02-18T09:31:21.043Z,6652
2019-02-18T09:32:21.298Z,6660
2019-02-18T09:33:21.053Z,6664
2019-02-18T09:34:21.051Z,6660
2019-02-18T09:35:20.840Z,6668
2019-02-18T09:36:23.658Z,6668
2019-02-18T09:37:21.019Z,6668
2019-02-18T09:38:31.743Z,6672
2019-02-18T09:39:32.715Z,6676
2019-02-18T09:40:21.267Z,6672
2019-02-18T09:41:21.238Z,6676
2019-02-18T09:42:20.992Z,6680
2019-02-18T09:43:20.963Z,6688
2019-02-18T09:44:20.954Z,6696
2019-02-18T09:45:22.141Z,6688
2019-02-18T09:46:20.950Z,6692
2019-02-18T09:47:20.938Z,6692
2019-02-18T09:48:20.685Z,6688
2019-02-18T09:49:20.675Z,6676
2019-02-18T09:50:20.714Z,6660
2019-02-18T09:51:20.903Z,6640
2019-02-18T09:52:20.673Z,6636
2019-02-18T09:53:20.408Z,6624
2019-02-18T09:54:21.143Z,6608
2019-02-18T09:55:21.196Z,6600
2019-02-18T09:56:20.964Z,6596
2019-02-18T09:57:20.657Z,6584
2019-02-18T09:58:20.858Z,6568
2019-02-18T09:59:21.112Z,6552
2019-02-18T10:00:21.105Z,6540
2019-02-18T10:01:21.388Z,6528
2019-02-18T10:02:20.833Z,6512
2019-02-18T10:03:29.256Z,6504
2019-02-18T10:04:22.637Z,6488
2019-02-18T10:05:20.862Z,6472
2019-02-18T10:06:20.824Z,6460
2019-02-18T10:07:21.060Z,6448
2019-02-18T10:08:20.553Z,6448
2019-02-18T10:09:21.043Z,6424
2019-02-18T10:10:20.886Z,6424
2019-02-18T10:11:21.056Z,6416
2019-02-18T10:12:25.220Z,6404
2019-02-18T10:13:20.546Z,6400
2019-02-18T10:14:20.768Z,6384
2019-02-18T10:15:20.824Z,6372
2019-02-18T10:16:20.766Z,6348
2019-02-18T10:17:20.760Z,6336
2019-02-18T10:18:20.765Z,6324
2019-02-18T10:19:21.010Z,6324
2019-02-18T10:20:20.823Z,6316
2019-02-18T10:21:21.034Z,6296
2019-02-18T10:22:20.729Z,6292
2019-02-18T10:23:20.484Z,6284
2019-02-18T10:24:21.021Z,6280
2019-02-18T10:25:20.969Z,6264
2019-02-18T10:26:20.462Z,6264
2019-02-18T10:27:20.959Z,6256
2019-02-18T10:28:20.680Z,6248
2019-02-18T10:29:20.690Z,6228
2019-02-18T10:30:23.177Z,6228
2019-02-18T10:31:20.935Z,6220
2019-02-18T10:32:20.915Z,6212
2019-02-18T10:33:20.678Z,6208
2019-02-18T10:34:20.679Z,6200
2019-02-18T10:35:20.794Z,6188
2019-02-18T10:36:20.633Z,6184
2019-02-18T10:37:20.401Z,6180
2019-02-18T10:38:20.625Z,6168
2019-02-18T10:39:20.630Z,6156
2019-02-18T10:40:20.693Z,6152
2019-02-18T10:41:21.753Z,6140
2019-02-18T10:42:20.608Z,6132
2019-02-18T10:43:20.631Z,6128
2019-02-18T10:44:20.863Z,6116
2019-02-18T10:45:20.893Z,6104
2019-02-18T10:46:20.612Z,6104
2019-02-18T10:47:20.852Z,6096
2019-02-18T10:48:21.092Z,6084
2019-02-18T10:49:28.655Z,6064
2019-02-18T10:50:20.898Z,6056
2019-02-18T10:51:20.600Z,6044
2019-02-18T10:52:22.524Z,6036
2019-02-18T10:53:20.130Z,6024
2019-02-18T10:54:20.620Z,6012
2019-02-18T10:55:20.684Z,5992
2019-02-18T10:56:21.419Z,5988
2019-02-18T10:57:20.841Z,5976
2019-02-18T10:58:20.565Z,5964
2019-02-18T10:59:20.050Z,5956
2019-02-18T11:00:20.835Z,5944
2019-02-18T11:01:20.534Z,5944
2019-02-18T11:02:20.798Z,5936
2019-02-18T11:03:20.414Z,5912
2019-02-18T11:04:21.316Z,5908
2019-02-18T11:05:20.598Z,5904
2019-02-18T11:06:20.528Z,5896
2019-02-18T11:07:20.519Z,5904
2019-02-18T11:08:20.502Z,5884
2019-02-18T11:09:20.532Z,5880
2019-02-18T11:10:20.592Z,5864
2019-02-18T11:11:24.387Z,5860
2019-02-18T11:12:20.488Z,5856
2019-02-18T11:13:20.522Z,5844
2019-02-18T11:14:20.477Z,5832
2019-02-18T11:15:21.298Z,5816
2019-02-18T11:16:20.473Z,5812
2019-02-18T11:17:20.474Z,5792
2019-02-18T11:18:20.732Z,5780
2019-02-18T11:19:22.515Z,5772
2019-02-18T11:20:20.477Z,5756
2019-02-18T11:21:20.700Z,5744
2019-02-18T11:22:20.700Z,5736
2019-02-18T11:23:21.090Z,5732
2019-02-18T11:24:23.114Z,5716
2019-02-18T11:25:20.758Z,5708
2019-02-18T11:26:20.211Z,5700
2019-02-18T11:27:20.709Z,5680
2019-02-18T11:28:20.427Z,5676
2019-02-18T11:29:20.428Z,5664
2019-02-18T11:30:20.547Z,5652
2019-02-18T11:31:20.890Z,5636
2019-02-18T11:32:20.660Z,5620
2019-02-18T11:33:20.436Z,5608
2019-02-18T11:34:20.677Z,5592
2019-02-18T11:35:20.232Z,5576
2019-02-18T11:36:20.394Z,5564
2019-02-18T11:37:20.813Z,5548
2019-02-18T11:38:20.175Z,5532
2019-02-18T11:39:21.214Z,5516
2019-02-18T11:40:20.207Z,5504
2019-02-18T11:41:29.855Z,5500
2019-02-18T11:42:20.394Z,5488
2019-02-18T11:43:20.648Z,5480
2019-02-18T11:44:20.426Z,5468
2019-02-18T11:45:20.480Z,5456
2019-02-18T11:46:20.166Z,5460
2019-02-18T11:47:21.302Z,5448
2019-02-18T11:48:19.859Z,5440
2019-02-18T11:49:20.434Z,5432
2019-02-18T11:50:20.241Z,5420
2019-02-18T11:51:20.616Z,5404
2019-02-18T11:52:20.143Z,5392
2019-02-18T11:53:20.119Z,5384
2019-02-18T11:54:20.351Z,5368
2019-02-18T11:55:20.975Z,5360
2019-02-18T11:56:20.106Z,5356
2019-02-18T11:57:20.074Z,5344
2019-02-18T11:58:20.356Z,5332
2019-02-18T11:59:30.541Z,5316
2019-02-18T12:00:20.474Z,5308
2019-02-18T12:01:20.379Z,5300
2019-02-18T12:02:20.134Z,5288
2019-02-18T12:03:21.525Z,5284
2019-02-18T12:04:20.386Z,5276
2019-02-18T12:05:20.249Z,5264
2019-02-18T12:06:20.390Z,5252
2019-02-18T12:07:20.581Z,5256
2019-02-18T12:08:20.057Z,5252
2019-02-18T12:09:22.754Z,5248
2019-02-18T12:10:20.680Z,5244
2019-02-18T12:11:20.515Z,5236
2019-02-18T12:12:20.189Z,5216
2019-02-18T12:13:20.321Z,5200
2019-02-18T12:14:19.799Z,5220
2019-02-18T12:15:20.185Z,5208
2019-02-18T12:16:20.328Z,5196
2019-02-18T12:19:27.479Z,5176
2019-02-18T12:19:37.441Z,5176
2019-02-18T12:20:37.967Z,5176
2019-02-18T12:21:37.535Z,5168
2019-02-18T12:22:37.736Z,5156
2019-02-18T12:23:37.743Z,5140
2019-02-18T12:24:39.155Z,5140
2019-02-18T12:25:37.736Z,5128
2019-02-18T12:26:37.326Z,5120
2019-02-18T12:27:39.451Z,5108
2019-02-18T12:28:37.764Z,5104
2019-02-18T12:29:37.527Z,5084
2019-02-18T12:30:39.448Z,5080
2019-02-18T12:31:37.475Z,5076
2019-02-18T12:32:37.480Z,5068
2019-02-18T12:33:37.214Z,5068
2019-02-18T12:34:37.701Z,5048
2019-02-18T12:35:41.557Z,5036
2019-02-18T12:36:37.802Z,5032
2019-02-18T12:37:37.719Z,5020
2019-02-18T12:38:37.469Z,5008
2019-02-18T12:39:37.214Z,5016
2019-02-18T12:40:37.468Z,5004
2019-02-18T12:41:37.252Z,4992
2019-02-18T12:42:37.473Z,4976
2019-02-18T12:43:38.311Z,4980
2019-02-18T12:44:37.225Z,4956
2019-02-18T12:45:37.489Z,4948
2019-02-18T12:46:37.472Z,4936
2019-02-18T12:47:37.693Z,4932
2019-02-18T12:48:39.895Z,4924
2019-02-18T12:49:37.741Z,4916
2019-02-18T12:50:37.249Z,4908
2019-02-18T12:51:38.261Z,4904
2019-02-18T12:52:37.722Z,4892
2019-02-18T12:53:37.255Z,4888
2019-02-18T12:54:37.522Z,4876
2019-02-18T12:55:38.693Z,4872
2019-02-18T12:56:37.712Z,4864
2019-02-18T12:57:37.718Z,4860
2019-02-18T12:58:37.540Z,4864
2019-02-18T12:59:38.582Z,4844
2019-02-18T13:00:37.505Z,4840
2019-02-18T13:01:37.716Z,4828
2019-02-18T13:02:48.132Z,4796
2019-02-18T13:03:37.264Z,4800
2019-02-18T13:04:39.079Z,4804
2019-02-18T13:05:38.078Z,4804
2019-02-18T13:06:37.461Z,4796
2019-02-18T13:07:37.436Z,4780
2019-02-18T13:08:37.463Z,4768
2019-02-18T13:09:37.481Z,4760
2019-02-18T13:10:42.282Z,4752
2019-02-18T13:11:37.212Z,4744
2019-02-18T13:12:38.300Z,4736
2019-02-18T13:13:38.173Z,4728
2019-02-18T13:14:37.226Z,4720
2019-02-18T13:15:37.465Z,4712
2019-02-18T13:16:37.461Z,4692
2019-02-18T13:17:37.449Z,4684
2019-02-18T13:18:37.684Z,4680
2019-02-18T13:19:38.237Z,4668
2019-02-18T13:20:37.423Z,4652
2019-02-18T13:21:37.404Z,4640
2019-02-18T13:22:37.008Z,4636
2019-02-18T13:23:37.435Z,4620
2019-02-18T13:24:37.148Z,4608
2019-02-18T13:25:37.446Z,4600
2019-02-18T13:26:37.801Z,4588
2019-02-18T13:27:37.567Z,4576
2019-02-18T13:28:37.661Z,4568
2019-02-18T13:29:37.421Z,4564
2019-02-18T13:30:37.647Z,4548
2019-02-18T13:31:37.180Z,4536
2019-02-18T13:32:37.376Z,4528
2019-02-18T13:33:37.153Z,4512
2019-02-18T13:34:37.977Z,4508
2019-02-18T13:35:37.634Z,4496
2019-02-18T13:36:36.908Z,4488
2019-02-18T13:37:37.390Z,4476
2019-02-18T13:38:37.638Z,4464
2019-02-18T13:39:37.386Z,4452
2019-02-18T13:40:37.132Z,4428
2019-02-18T13:41:39.226Z,4412
2019-02-18T13:42:37.999Z,4400
2019-02-18T13:43:37.634Z,4384
2019-02-18T13:44:37.387Z,4372
2019-02-18T13:45:37.373Z,4364
2019-02-18T13:46:37.145Z,4348
2019-02-18T13:47:37.377Z,4332
2019-02-18T13:48:37.641Z,4320
2019-02-18T13:49:37.838Z,4296
2019-02-18T13:50:37.897Z,4284
2019-02-18T13:51:37.624Z,4276
2019-02-18T13:52:37.376Z,4272
2019-02-18T13:53:37.115Z,4260
2019-02-18T13:54:37.108Z,4240
2019-02-18T13:55:37.605Z,4224
2019-02-18T13:56:37.620Z,4216
2019-02-18T13:57:37.978Z,4196